Time;durP1;ratioP1;P1;durP2;ratioP2;P2;SDS_P1;SDS_P2;PMS_P1;PMS_P2;Temp;Humidity;BMP_temperature;BMP_pressure;BME280_temperature;BME280_humidity;BME280_pressure;Samples;Min_cycle;Max_cycle;Signal;HPM_P1;HPM_P2
2024/01/16 00:02:45;;;;;;;22.00;14.10;;;;;;;2.63;90.41;97625.54;104447;1262;60827;-69
2024/01/16 00:06:02;;;;;;;22.10;13.90;;;;;;;2.78;89.05;97622.49;104838;1259;59765;-69
2024/01/16 00:13:33;;;;;;;20.30;14.60;;;;;;;2.83;87.16;97609.30;104854;1253;70860;-68
2024/01/16 00:16:45;;;;;;;18.80;13.50;;;;;;;2.84;86.64;97605.27;104471;1253;72938;-68
2024/01/16 00:20:01;;;;;;;19.90;14.00;;;;;;;2.82;86.36;97608.80;104654;1256;60988;-69
2024/01/16 00:27:33;;;;;;;21.80;13.40;;;;;;;2.80;86.43;97609.93;104676;1270;75754;-70
2024/01/16 00:30:01;;;;;;;19.00;14.20;;;;;;;2.80;86.43;97614.10;104350;1254;69276;-70
2024/01/16 00:32:35;;;;;;;20.40;12.80;;;;;;;2.87;85.80;97614.15;104743;1257;72548;-70
2024/01/16 00:35:50;;;;;;;19.40;14.00;;;;;;;2.85;85.52;97612.14;104781;1254;59753;-70
2024/01/16 00:39:08;;;;;;;19.50;13.70;;;;;;;2.84;85.50;97608.21;104851;1256;59861;-70
2024/01/16 00:42:20;;;;;;;20.30;14.00;;;;;;;2.88;85.17;97609.27;104664;1259;73839;-71
2024/01/16 00:45:04;;;;;;;19.30;13.90;;;;;;;2.95;84.57;97610.84;104939;1254;68101;-70
2024/01/16 00:48:17;;;;;;;18.00;13.40;;;;;;;3.02;83.97;97604.14;104526;1256;71391;-70
2024/01/16 00:51:32;;;;;;;22.40;14.30;;;;;;;2.99;83.87;97611.00;104666;1261;60789;-70
2024/01/16 00:54:44;;;;;;;19.90;13.20;;;;;;;3.10;83.25;97615.56;104615;1256;59884;-71
2024/01/16 00:57:56;;;;;;;21.90;14.20;;;;;;;3.18;82.14;97613.61;104645;1259;73702;-70
2024/01/16 01:05:30;;;;;;;19.40;14.10;;;;;;;3.07;82.15;97602.52;105073;1253;74569;-69
2024/01/16 01:08:42;;;;;;;18.70;13.40;;;;;;;2.68;86.46;97608.72;104961;1259;60741;-69
2024/01/16 01:11:54;;;;;;;19.70;13.00;;;;;;;2.65;88.43;97613.87;104856;1255;59778;-68
2024/01/16 01:15:02;;;;;;;18.90;13.20;;;;;;;2.63;88.91;97609.84;104497;1258;73637;-68
2024/01/16 01:18:18;;;;;;;20.40;13.00;;;;;;;2.65;89.28;97605.40;104356;1267;69217;-68
2024/01/16 01:21:30;;;;;;;17.00;12.20;;;;;;;2.68;88.48;97610.96;104909;1253;72443;-68
2024/01/16 01:24:41;;;;;;;17.10;11.60;;;;;;;2.70;88.41;97617.29;104648;1259;62499;-70
2024/01/16 01:27:54;;;;;;;17.60;11.90;;;;;;;2.67;88.22;97616.21;104671;1259;59772;-68
2024/01/16 01:31:07;;;;;;;19.60;13.20;;;;;;;2.68;88.83;97618.06;104694;1254;72821;-69
2024/01/16 01:34:19;;;;;;;16.30;11.60;;;;;;;2.68;89.06;97619.12;104513;1259;70428;-66
2024/01/16 01:36:53;;;;;;;16.90;12.50;;;;;;;2.65;89.57;97621.83;104656;1272;72405;-67
2024/01/16 01:40:05;;;;;;;16.60;13.00;;;;;;;2.65;90.33;97623.57;104595;1254;60627;-67
2024/01/16 01:43:19;;;;;;;18.80;13.60;;;;;;;2.66;90.52;97630.97;104825;1256;60470;-69
2024/01/16 01:46:31;;;;;;;19.30;13.10;;;;;;;2.67;90.12;97648.19;104903;1259;73723;-69
2024/01/16 01:49:43;;;;;;;19.40;14.10;;;;;;;2.63;89.92;97661.90;104684;1259;68228;-69
2024/01/16 01:52:55;;;;;;;15.90;12.20;;;;;;;2.63;90.80;97651.17;104678;1256;72522;-70
2024/01/16 01:56:08;;;;;;;19.10;13.50;;;;;;;2.64;90.93;97640.58;104599;1257;61036;-70
2024/01/16 08:25:19;;;;;;;15.90;8.90;;;;;;;2.26;85.44;97776.57;101602;1291;603908;-64
2024/01/16 08:28:31;;;;;;;11.00;7.50;;;;;;;2.93;74.97;97776.90;103483;1268;59497;-64
2024/01/16 08:31:44;;;;;;;8.90;6.20;;;;;;;2.90;70.34;97776.85;104227;1269;59853;-63
2024/01/16 08:34:56;;;;;;;8.30;6.40;;;;;;;2.91;67.51;97775.45;104099;1263;70785;-63
2024/01/16 08:38:09;;;;;;;8.60;6.00;;;;;;;2.96;66.52;97774.67;104193;1260;334392;-64
2024/01/16 08:41:21;;;;;;;8.00;6.00;;;;;;;3.06;65.41;97781.88;104104;1276;72894;-62
2024/01/16 08:44:33;;;;;;;7.10;5.60;;;;;;;3.09;64.50;97788.67;104376;1262;59366;-63
2024/01/16 08:47:07;;;;;;;7.30;5.50;;;;;;;3.19;64.16;97786.40;104487;1259;59877;-64
2024/01/16 08:50:19;;;;;;;8.00;5.60;;;;;;;3.15;63.68;97790.34;104889;1265;72043;-62
2024/01/16 08:53:33;;;;;;;10.90;6.10;;;;;;;3.09;63.87;97798.90;104460;1260;70538;-64
2024/01/16 08:56:46;;;;;;;11.20;7.50;;;;;;;3.16;64.34;97800.68;104134;1263;72483;-63
2024/01/16 08:59:58;;;;;;;10.90;7.50;;;;;;;3.15;65.24;97802.11;104083;1262;60832;-63
2024/01/16 09:03:10;;;;;;;11.80;7.70;;;;;;;3.15;67.33;97805.77;104007;1260;59667;-64
2024/01/16 09:06:22;;;;;;;10.40;6.60;;;;;;;3.09;68.47;97805.49;104409;1260;72899;-62
2024/01/16 09:09:37;;;;;;;11.40;7.10;;;;;;;3.08;68.06;97812.62;104215;1265;69540;-64
2024/01/16 09:12:53;;;;;;;12.80;6.80;;;;;;;3.17;68.03;97809.68;104234;1262;74945;-65
2024/01/16 09:16:06;;;;;;;8.00;6.30;;;;;;;3.20;66.57;97814.40;104266;1261;59762;-65
2024/01/16 09:23:00;;;;;;;9.70;6.80;;;;;;;3.13;65.88;97820.06;104561;1265;72829;-63
2024/01/16 09:26:14;;;;;;;11.50;7.50;;;;;;;3.30;67.36;97814.48;104040;1265;68103;-62
2024/01/16 09:29:25;;;;;;;12.20;7.30;;;;;;;3.36;67.19;97806.63;103809;1265;73254;-64
2024/01/16 09:32:38;;;;;;;10.50;6.70;;;;;;;3.55;66.22;97819.30;104403;1263;61067;-63
2024/01/16 09:35:22;;;;;;;7.70;6.30;;;;;;;3.54;65.18;97823.69;107341;1261;60584;-63
2024/01/16 09:42:51;;;;;;;10.60;6.90;;;;;;;3.64;65.08;97823.57;107567;1259;69156;-62
2024/01/16 09:45:27;;;;;;;9.60;7.20;;;;;;;3.64;64.41;97825.48;107373;1260;72662;-63
2024/01/16 09:48:45;;;;;;;10.30;6.90;;;;;;;3.70;64.80;97822.82;107327;1259;59205;-61
2024/01/16 09:56:15;;;;;;;8.30;6.70;;;;;;;3.76;63.42;97832.08;107574;1260;72828;-60
2024/01/16 09:59:33;;;;;;;8.40;5.80;;;;;;;3.86;62.62;97833.54;107356;1259;72337;-64
2024/01/16 10:02:48;;;;;;;8.00;5.20;;;;;;;3.99;61.77;97839.21;107399;1260;73383;-61
2024/01/16 10:05:21;;;;;;;6.90;5.70;;;;;;;3.86;60.52;97841.67;107334;1260;59271;-61
2024/01/16 10:08:33;;;;;;;6.00;4.30;;;;;;;3.88;58.90;97850.29;107203;1259;58886;-60
2024/01/16 10:11:46;;;;;;;5.60;4.20;;;;;;;3.95;57.51;97846.86;107306;1259;75260;-63
2024/01/16 10:14:58;;;;;;;5.10;4.30;;;;;;;4.04;57.22;97851.46;107266;1260;69600;-62
2024/01/16 10:18:09;;;;;;;4.40;3.40;;;;;;;4.16;56.04;97854.40;107327;1259;72344;-61
2024/01/16 10:21:29;;;;;;;5.30;4.00;;;;;;;4.24;55.82;97850.88;107301;1260;59926;-59
2024/01/16 10:24:40;;;;;;;6.20;3.80;;;;;;;4.35;55.34;97853.87;107344;1260;59829;-60
2024/01/16 10:27:51;;;;;;;5.30;4.10;;;;;;;4.44;55.24;97858.17;107180;1261;73539;-59
2024/01/16 10:30:38;;;;;;;4.30;3.20;;;;;;;4.61;55.26;97863.08;107312;1261;69108;-61
2024/01/16 10:33:50;;;;;;;4.70;3.50;;;;;;;4.55;54.06;97865.11;107661;1258;72499;-60
2024/01/16 10:37:04;;;;;;;5.80;3.50;;;;;;;4.59;53.53;97872.17;107853;1256;59985;-60
2024/01/16 10:40:16;;;;;;;3.60;3.30;;;;;;;4.52;53.26;97875.13;107665;1256;60042;-63
2024/01/16 10:46:49;;;;;;;5.20;4.40;;;;;;;4.17;54.68;97878.79;108371;1253;70592;-62
2024/01/16 10:53:31;;;;;;;5.60;4.70;;;;;;;3.93;56.64;97879.84;108314;1253;59628;-61
2024/01/16 10:56:42;;;;;;;6.40;5.20;;;;;;;3.97;57.54;97886.27;108357;1251;60167;-60
2024/01/16 10:59:57;;;;;;;6.30;5.30;;;;;;;3.91;58.31;97891.94;108283;1252;73102;-62
2024/01/16 11:07:30;;;;;;;7.00;5.00;;;;;;;3.82;59.21;97907.88;108447;1251;72410;-60
2024/01/16 11:10:20;;;;;;;6.00;5.00;;;;;;;3.83;59.41;97908.88;108345;1251;59300;-61
2024/01/16 11:13:31;;;;;;;6.60;4.70;;;;;;;3.83;59.70;97911.15;108219;1253;60386;-62
2024/01/16 11:16:42;;;;;;;8.90;5.10;;;;;;;3.86;59.91;97917.23;108467;1253;72880;-61
2024/01/16 11:19:54;;;;;;;4.40;2.80;;;;;;;3.85;58.47;97923.70;108399;1252;69323;-61
2024/01/16 11:30:28;;;;;;;2.00;1.20;;;;;;;3.81;52.90;97935.47;108343;1253;58789;-61
2024/01/16 11:33:41;;;;;;;3.30;1.10;;;;;;;4.07;52.25;97943.04;108382;1253;72864;-62
2024/01/16 11:36:56;;;;;;;1.70;1.20;;;;;;;4.43;52.19;97945.80;108355;1252;70034;-62
2024/01/16 11:40:10;;;;;;;3.40;1.20;;;;;;;4.63;51.28;97948.70;108327;1254;72194;-60
2024/01/16 11:43:25;;;;;;;1.00;0.90;;;;;;;4.75;51.45;97954.94;108282;1253;59206;-60
2024/01/16 11:46:39;;;;;;;2.80;1.40;;;;;;;4.67;50.75;97957.58;108222;1251;60273;-60
2024/01/16 11:54:09;;;;;;;5.10;1.60;;;;;;;4.26;49.80;97978.46;108430;1253;69152;-63
2024/01/16 11:57:02;;;;;;;1.80;1.70;;;;;;;4.21;49.27;97989.27;108252;1253;73277;-60
2024/01/16 12:00:14;;;;;;;2.50;1.50;;;;;;;4.25;49.09;98002.45;108382;1253;60095;-60
2024/01/16 12:02:57;;;;;;;2.10;1.60;;;;;;;4.30;49.33;98008.31;108021;1253;60333;-60
2024/01/16 12:10:23;;;;;;;2.10;1.50;;;;;;;4.45;48.87;98020.30;108454;1251;69549;-60
2024/01/16 12:20:21;;;;;;;3.70;1.90;;;;;;;4.56;48.53;98026.06;108376;1251;59028;-59
2024/01/16 12:23:33;;;;;;;3.50;2.30;;;;;;;4.53;48.35;98029.84;108372;1253;73707;-60
2024/01/16 12:26:03;;;;;;;2.50;1.90;;;;;;;4.61;48.41;98036.10;108386;1252;69522;-60
2024/01/16 12:29:14;;;;;;;1.60;1.50;;;;;;;4.82;48.44;98034.64;108368;1253;72472;-60
2024/01/16 12:31:48;;;;;;;2.30;2.10;;;;;;;4.83;48.16;98037.22;108326;1258;59195;-61
2024/01/16 12:34:32;;;;;;;2.70;2.00;;;;;;;4.81;48.38;98031.05;107984;1253;59228;-60
2024/01/16 12:41:40;;;;;;;3.70;2.10;;;;;;;4.69;48.02;98050.00;108360;1251;69292;-60
2024/01/16 12:44:54;;;;;;;2.20;1.80;;;;;;;4.50;48.03;98059.29;108350;1253;72455;-60
2024/01/16 12:48:06;;;;;;;2.30;1.50;;;;;;;4.41;48.17;98059.02;108296;1257;58993;-60
2024/01/16 12:51:18;;;;;;;3.00;2.30;;;;;;;4.42;48.81;98070.60;108364;1253;60429;-60
2024/01/16 12:54:29;;;;;;;3.00;2.20;;;;;;;4.23;48.50;98069.68;107969;1253;73094;-59
2024/01/16 12:57:41;;;;;;;2.60;2.10;;;;;;;4.16;49.02;98071.67;108319;1253;71848;-60
2024/01/16 13:00:25;;;;;;;3.40;2.10;;;;;;;4.03;49.11;98082.80;108295;1253;72489;-65
2024/01/16 13:03:36;;;;;;;3.20;2.40;;;;;;;3.91;48.76;98087.98;108419;1254;59067;-62
2024/01/16 13:06:48;;;;;;;4.30;2.30;;;;;;;3.87;49.31;98088.80;108247;1253;59949;-59
2024/01/16 13:10:00;;;;;;;4.10;2.80;;;;;;;3.70;49.25;98098.70;108334;1253;73120;-59
2024/01/16 13:13:11;;;;;;;4.00;2.70;;;;;;;3.56;48.69;98101.16;108425;1253;69640;-59
2024/01/16 13:16:23;;;;;;;3.60;2.30;;;;;;;3.46;49.24;98111.92;108305;1253;72917;-60
2024/01/16 13:19:36;;;;;;;2.20;2.00;;;;;;;3.35;49.38;98112.68;108206;1253;58261;-59
2024/01/16 13:22:48;;;;;;;2.80;2.00;;;;;;;3.36;49.35;98114.92;108356;1254;60657;-59
2024/01/16 13:34:48;;;;;;;3.40;2.60;;;;;;;2.98;50.09;98141.40;108524;1254;72519;-59
2024/01/16 13:37:23;;;;;;;5.40;2.20;;;;;;;2.87;50.02;98148.36;108302;1253;59408;-59
2024/01/16 13:39:56;;;;;;;2.30;2.10;;;;;;;2.63;50.55;98153.36;108365;1252;60010;-58
2024/01/16 13:42:30;;;;;;;2.90;2.20;;;;;;;2.55;50.97;98156.93;108256;1253;73133;-59
2024/01/16 13:45:44;;;;;;;2.90;2.40;;;;;;;2.47;51.07;98170.69;108346;1253;69313;-61
2024/01/16 13:48:55;;;;;;;2.20;2.00;;;;;;;2.32;51.16;98176.37;108316;1254;73180;-61
2024/01/16 13:52:08;;;;;;;3.90;2.80;;;;;;;2.27;51.52;98181.17;108311;1253;59127;-60
2024/01/16 13:58:41;;;;;;;6.20;2.60;;;;;;;2.18;51.38;98186.69;108206;1254;73962;-59
2024/01/16 14:01:54;;;;;;;2.40;2.00;;;;;;;2.08;51.39;98186.11;108315;1254;69361;-60
2024/01/16 14:05:10;;;;;;;4.40;1.90;;;;;;;2.06;51.36;98195.38;108268;1252;71327;-59
2024/01/16 14:08:25;;;;;;;3.10;1.90;;;;;;;1.99;51.26;98202.82;108285;1254;60076;-61
2024/01/16 14:11:24;;;;;;;3.00;2.10;;;;;;;1.90;50.74;98208.11;108264;1252;59827;-61
2024/01/16 14:14:35;;;;;;;3.80;2.80;;;;;;;1.80;50.84;98212.92;108311;1253;74189;-61
2024/01/16 14:17:46;;;;;;;4.40;2.50;;;;;;;1.66;51.38;98222.16;108393;1253;70575;-60
2024/01/16 14:24:50;;;;;;;2.40;2.10;;;;;;;1.57;51.11;98233.27;108247;1252;58843;-60
2024/01/16 14:28:05;;;;;;;3.40;1.90;;;;;;;1.47;51.15;98246.00;108296;1254;58883;-60
2024/01/16 14:31:23;;;;;;;4.60;2.20;;;;;;;1.40;51.31;98256.20;108464;1254;74131;-61
2024/01/16 14:34:34;;;;;;;2.70;2.30;;;;;;;1.38;51.47;98258.16;108274;1253;70027;-60
2024/01/16 14:37:45;;;;;;;2.70;2.20;;;;;;;1.28;51.40;98270.70;108340;1253;72944;-62
2024/01/16 14:40:25;;;;;;;3.20;2.30;;;;;;;1.25;51.50;98277.33;108440;1253;58926;-63
2024/01/16 14:43:36;;;;;;;2.60;2.10;;;;;;;1.23;51.12;98283.77;108219;1251;59916;-63
2024/01/16 14:46:48;;;;;;;2.40;1.80;;;;;;;1.16;50.91;98295.87;108309;1254;73667;-62
2024/01/16 14:54:24;;;;;;;3.40;2.00;;;;;;;1.20;51.18;98304.75;108506;1254;72406;-62
2024/01/16 14:56:55;;;;;;;5.10;2.80;;;;;;;1.14;50.62;98312.33;108252;1252;58656;-64
2024/01/16 15:00:13;;;;;;;6.20;2.80;;;;;;;1.08;50.75;98307.13;108256;1251;58914;-64
2024/01/16 15:03:25;;;;;;;2.80;2.40;;;;;;;1.02;51.04;98316.59;108271;1253;74095;-62
2024/01/16 15:06:36;;;;;;;6.10;2.30;;;;;;;0.91;50.97;98322.05;108209;1251;68874;-62
2024/01/16 15:09:48;;;;;;;3.50;2.80;;;;;;;0.77;51.18;98329.80;108292;1253;73162;-63
2024/01/16 15:12:59;;;;;;;4.80;2.10;;;;;;;0.72;51.30;98336.98;108293;1254;59886;-63
2024/01/16 15:16:11;;;;;;;6.40;2.80;;;;;;;0.69;51.12;98342.94;108429;1254;59768;-62
2024/01/16 15:19:24;;;;;;;3.80;2.60;;;;;;;0.61;51.56;98350.35;108310;1251;76230;-62
2024/01/16 15:22:38;;;;;;;3.50;2.70;;;;;;;0.52;51.54;98355.04;108413;1251;71078;-63
2024/01/16 15:25:23;;;;;;;5.50;2.30;;;;;;;0.50;51.61;98355.45;108372;1253;72885;-62
2024/01/16 15:32:38;;;;;;;4.70;2.80;;;;;;;0.35;51.92;98355.24;108281;1252;60687;-61
2024/01/16 15:35:49;;;;;;;5.20;3.00;;;;;;;0.29;52.06;98359.18;108460;1251;72837;-61
2024/01/16 15:39:07;;;;;;;6.30;3.40;;;;;;;0.31;52.03;98369.66;108300;1251;68835;-61
2024/01/16 15:42:25;;;;;;;5.00;3.40;;;;;;;0.27;52.20;98379.23;108279;1252;75610;-60
2024/01/16 15:45:21;;;;;;;7.40;4.00;;;;;;;0.24;52.20;98389.79;108275;1252;59431;-63
2024/01/16 15:48:00;;;;;;;5.80;4.00;;;;;;;0.20;52.35;98386.44;108343;1251;60593;-60
2024/01/16 15:51:11;;;;;;;5.10;3.90;;;;;;;0.21;52.59;98391.41;108467;1251;73948;-61
2024/01/16 15:54:23;;;;;;;6.00;3.60;;;;;;;0.16;52.76;98399.11;108164;1252;70286;-61
2024/01/16 15:57:38;;;;;;;5.30;3.80;;;;;;;0.13;52.66;98401.92;108324;1253;71541;-61
2024/01/16 16:00:23;;;;;;;8.40;3.70;;;;;;;0.16;52.90;98403.58;108472;1253;60114;-61
2024/01/16 16:12:01;;;;;;;4.10;3.40;;;;;;;0.26;52.37;98422.67;108528;1251;69255;-60
2024/01/16 16:15:23;;;;;;;5.40;3.40;;;;;;;0.35;51.98;98421.98;108224;1254;73377;-60
2024/01/16 16:18:37;;;;;;;5.90;3.30;;;;;;;0.40;51.65;98433.23;108244;1254;60770;-60
2024/01/16 16:21:50;;;;;;;5.00;3.30;;;;;;;0.44;51.39;98436.44;108396;1251;59800;-59
2024/01/16 16:35:23;;;;;;;4.00;2.30;;;;;;;0.41;50.17;98467.54;108322;1252;60105;-61
2024/01/16 16:42:54;;;;;;;3.60;3.00;;;;;;;0.27;50.46;98490.92;107386;1260;74390;-60
2024/01/16 16:46:05;;;;;;;4.50;3.00;;;;;;;0.12;50.71;98495.84;107804;1253;70560;-61
2024/01/16 16:49:17;;;;;;;6.90;4.20;;;;;;;0.01;51.13;98495.20;108194;1254;72478;-61
2024/01/16 16:52:28;;;;;;;4.80;3.90;;;;;;;-0.03;51.38;98504.07;108310;1253;60494;-61
2024/01/16 16:55:40;;;;;;;6.20;3.50;;;;;;;-0.15;51.66;98509.77;108287;1253;59071;-61
2024/01/16 16:58:51;;;;;;;5.00;3.50;;;;;;;-0.26;51.38;98523.40;108355;1251;73681;-61
2024/01/16 17:02:03;;;;;;;6.80;4.00;;;;;;;-0.32;51.59;98534.72;108300;1251;70331;-60
2024/01/16 17:05:14;;;;;;;6.90;5.10;;;;;;;-0.54;52.11;98542.63;108287;1253;72601;-61
2024/01/16 17:08:26;;;;;;;8.40;5.10;;;;;;;-0.48;52.22;98547.18;108290;1253;60040;-62
2024/01/16 17:11:38;;;;;;;9.70;6.00;;;;;;;-0.46;52.31;98559.56;108273;1251;59937;-61
2024/01/16 17:14:53;;;;;;;8.50;5.50;;;;;;;-0.52;52.17;98567.56;108293;1251;75038;-61
2024/01/16 17:18:07;;;;;;;8.50;6.20;;;;;;;-0.60;52.31;98571.29;108197;1251;69679;-60
2024/01/16 17:21:19;;;;;;;8.40;5.00;;;;;;;-0.67;52.43;98563.99;108325;1252;71651;-61
2024/01/16 17:24:31;;;;;;;9.90;4.90;;;;;;;-0.80;52.52;98567.96;108257;1252;60260;-61
2024/01/16 17:27:49;;;;;;;12.20;4.80;;;;;;;-0.90;52.70;98570.85;108309;1252;60397;-61
2024/01/16 17:30:22;;;;;;;9.20;5.40;;;;;;;-1.03;53.12;98584.98;108246;1251;73669;-62
2024/01/16 17:33:34;;;;;;;8.60;5.60;;;;;;;-0.98;53.17;98591.44;108297;1254;69998;-61
2024/01/16 17:36:48;;;;;;;6.90;4.50;;;;;;;-1.00;53.35;98597.48;108269;1254;71790;-61
2024/01/16 17:39:50;;;;;;;8.10;5.10;;;;;;;-0.99;53.20;98602.47;108291;1252;60506;-61
2024/01/16 17:46:43;;;;;;;6.20;4.30;;;;;;;-1.01;53.47;98609.19;108500;1251;74314;-61
2024/01/16 17:49:14;;;;;;;7.10;4.80;;;;;;;-1.02;53.64;98615.73;108282;1251;70403;-61
2024/01/16 17:51:46;;;;;;;6.40;4.70;;;;;;;-1.03;53.82;98614.71;108303;1253;72481;-62
2024/01/16 17:54:17;;;;;;;10.20;6.10;;;;;;;-1.02;53.73;98616.95;108249;1253;59879;-61
2024/01/16 17:57:16;;;;;;;11.90;6.40;;;;;;;-1.12;53.86;98622.92;108321;1251;59909;-61
2024/01/16 18:00:22;;;;;;;10.90;7.20;;;;;;;-1.24;54.03;98628.55;108300;1253;74316;-60
2024/01/16 18:03:34;;;;;;;8.80;5.80;;;;;;;-1.34;54.37;98633.66;108443;1250;68705;-61
2024/01/16 18:06:54;;;;;;;14.90;6.50;;;;;;;-1.43;54.56;98642.19;108065;1253;71881;-61
2024/01/16 18:10:09;;;;;;;6.70;4.90;;;;;;;-1.53;54.89;98649.84;108265;1253;60426;-61
2024/01/16 18:13:21;;;;;;;7.70;4.70;;;;;;;-1.57;55.46;98657.44;108187;1253;58981;-62
2024/01/16 18:16:33;;;;;;;10.90;4.90;;;;;;;-1.51;55.40;98661.86;108245;1250;73738;-61
2024/01/16 18:19:46;;;;;;;8.30;5.00;;;;;;;-1.54;55.67;98671.69;108209;1252;69555;-60
2024/01/16 18:22:58;;;;;;;9.90;5.20;;;;;;;-1.57;55.94;98675.48;108202;1253;73950;-61
2024/01/16 18:26:12;;;;;;;8.00;4.90;;;;;;;-1.56;55.90;98684.42;108236;1252;60320;-61
2024/01/16 18:37:15;;;;;;;6.40;4.70;;;;;;;-1.73;57.25;98715.50;108471;1251;70114;-61
2024/01/16 18:40:25;;;;;;;4.50;3.80;;;;;;;-1.73;57.11;98718.94;108103;1251;72833;-61
2024/01/16 18:43:18;;;;;;;6.70;4.40;;;;;;;-1.73;56.90;98723.05;108213;1253;60076;-61
2024/01/16 18:46:32;;;;;;;8.70;4.20;;;;;;;-1.78;57.25;98728.77;108245;1255;61051;-61
2024/01/16 18:49:45;;;;;;;7.40;4.60;;;;;;;-1.74;57.35;98737.83;108111;1253;74070;-62
2024/01/16 18:52:57;;;;;;;6.90;4.40;;;;;;;-1.77;57.15;98746.97;108289;1254;70052;-61
2024/01/16 18:56:08;;;;;;;9.60;5.40;;;;;;;-1.73;57.29;98750.20;108281;1252;75644;-60
2024/01/16 18:59:23;;;;;;;9.10;5.00;;;;;;;-1.79;57.26;98752.99;108295;1251;60384;-61
2024/01/16 19:02:38;;;;;;;7.10;4.60;;;;;;;-1.82;57.43;98752.52;108245;1251;59882;-61
2024/01/16 19:05:22;;;;;;;11.90;6.00;;;;;;;-1.81;57.94;98751.80;108299;1251;73715;-66
2024/01/16 19:11:38;;;;;;;8.20;5.10;;;;;;;-1.84;57.71;98761.46;108245;1251;72797;-60
2024/01/16 19:14:56;;;;;;;9.00;4.80;;;;;;;-1.83;57.47;98762.13;108281;1252;59114;-60
2024/01/16 19:26:45;;;;;;;6.70;4.40;;;;;;;-2.00;57.58;98778.56;108540;1252;68340;-61
2024/01/16 19:29:47;;;;;;;7.30;4.20;;;;;;;-2.02;57.49;98783.20;108264;1252;72523;-62
2024/01/16 19:37:17;;;;;;;8.90;5.20;;;;;;;-1.97;57.95;98797.77;108531;1251;60843;-61
2024/01/16 19:40:30;;;;;;;9.20;4.70;;;;;;;-1.98;57.60;98802.95;108366;1251;73711;-62
2024/01/16 19:43:42;;;;;;;9.00;4.70;;;;;;;-2.01;57.76;98807.77;108315;1251;69740;-63
2024/01/16 19:46:53;;;;;;;8.20;5.40;;;;;;;-1.98;57.57;98813.41;108327;1251;72487;-63
2024/01/16 19:50:09;;;;;;;11.60;6.20;;;;;;;-1.93;57.14;98821.80;108521;1251;60033;-61
2024/01/16 19:53:21;;;;;;;11.20;5.60;;;;;;;-1.95;57.15;98833.67;108323;1251;60108;-62
2024/01/16 19:56:32;;;;;;;9.10;5.70;;;;;;;-1.92;57.26;98844.30;108357;1251;73361;-62
2024/01/16 19:59:44;;;;;;;6.50;4.50;;;;;;;-1.99;57.25;98856.02;108320;1251;69742;-62
2024/01/16 20:02:55;;;;;;;10.30;5.10;;;;;;;-1.95;57.07;98864.58;108250;1251;72158;-61
2024/01/16 20:06:13;;;;;;;6.80;5.00;;;;;;;-1.91;56.82;98867.48;108354;1251;59958;-62
2024/01/16 20:08:51;;;;;;;6.80;4.20;;;;;;;-1.89;56.49;98875.55;108372;1250;58776;-61
2024/01/16 20:12:04;;;;;;;7.70;5.00;;;;;;;-1.88;56.64;98882.76;108529;1251;73616;-62
2024/01/16 20:15:15;;;;;;;8.60;4.70;;;;;;;-1.94;56.43;98884.85;108405;1251;69864;-61
2024/01/16 20:17:47;;;;;;;5.30;3.90;;;;;;;-1.92;56.47;98891.70;108548;1250;72552;-61
2024/01/16 20:20:21;;;;;;;6.30;4.70;;;;;;;-1.93;56.22;98900.82;108330;1251;59893;-61
2024/01/16 20:23:32;;;;;;;7.60;4.90;;;;;;;-1.96;56.29;98905.65;108552;1251;58953;-62
2024/01/16 20:30:32;;;;;;;7.00;4.30;;;;;;;-2.01;56.35;98915.63;108385;1252;69610;-61
2024/01/16 20:37:33;;;;;;;10.00;5.80;;;;;;;-2.00;56.32;98911.15;108366;1251;60129;-61
2024/01/16 20:42:03;;;;;;;8.60;5.10;;;;;;;-2.68;59.05;98931.85;101151;1298;602890;-60
2024/01/16 20:45:15;;;;;;;8.60;5.60;;;;;;;-2.22;57.02;98942.99;103762;1270;61875;-61
2024/01/16 20:48:28;;;;;;;9.40;5.70;;;;;;;-2.26;56.42;98955.88;103460;1273;59367;-60
2024/01/16 20:51:40;;;;;;;10.70;5.80;;;;;;;-2.34;56.45;98964.99;103470;1267;72370;-61
2024/01/16 20:54:15;;;;;;;9.50;6.40;;;;;;;-2.47;56.66;98971.54;99391;1266;5632241;-60
2024/01/16 20:57:29;;;;;;;11.90;6.00;;;;;;;-2.55;56.98;98968.79;104346;1266;72215;-61
2024/01/16 21:00:24;;;;;;;10.80;5.70;;;;;;;-2.52;57.32;98971.54;103904;1269;61537;-64
2024/01/16 21:10:57;;;;;;;5.90;3.90;;;;;;;-2.45;58.13;98972.73;103653;1270;70374;-65
2024/01/16 21:14:09;;;;;;;9.00;4.90;;;;;;;-2.43;58.17;98979.77;103676;1271;72797;-64
2024/01/16 21:17:23;;;;;;;7.40;4.70;;;;;;;-2.44;58.06;98987.48;103595;1277;64175;-64
2024/01/16 21:20:38;;;;;;;8.10;5.20;;;;;;;-2.42;58.00;98988.35;103748;1266;59737;-64
2024/01/16 21:27:47;;;;;;;7.00;4.80;;;;;;;-2.42;58.03;99004.66;103840;1266;69937;-63
2024/01/16 21:30:26;;;;;;;12.00;4.70;;;;;;;-2.47;58.19;99007.23;103631;1273;72800;-64
2024/01/16 21:37:12;;;;;;;9.60;5.20;;;;;;;-2.51;58.97;99020.63;103843;1266;59759;-63
2024/01/16 21:39:47;;;;;;;9.60;5.50;;;;;;;-2.47;59.07;99026.97;103919;1268;72188;-64
2024/01/16 21:50:01;;;;;;;12.50;6.30;;;;;;;-2.39;58.83;99035.55;103640;1266;62603;-64
2024/01/16 21:53:18;;;;;;;10.40;5.10;;;;;;;-2.43;59.12;99035.55;103567;1265;59734;-64
2024/01/16 22:00:47;;;;;;;10.00;6.00;;;;;;;-2.45;59.46;99047.23;103773;1264;70793;-64
2024/01/16 22:04:03;;;;;;;9.20;5.10;;;;;;;-2.41;59.38;99047.23;103622;1268;72399;-67
2024/01/16 22:07:15;;;;;;;9.30;5.40;;;;;;;-2.40;59.77;99052.03;103647;1271;60591;-64
2024/01/16 22:10:23;;;;;;;10.60;5.90;;;;;;;-2.38;59.47;99056.32;103669;1270;59789;-64
2024/01/16 22:13:35;;;;;;;7.60;5.50;;;;;;;-2.46;59.51;99060.45;103834;1264;72774;-64
2024/01/16 22:16:52;;;;;;;9.70;5.90;;;;;;;-2.49;59.63;99066.79;103656;1270;69360;-63
2024/01/16 22:20:10;;;;;;;6.80;4.40;;;;;;;-2.45;59.28;99082.23;103639;1280;72589;-64
2024/01/16 22:22:56;;;;;;;10.30;6.30;;;;;;;-2.53;59.49;99087.55;103635;1266;61264;-64
2024/01/16 22:26:08;;;;;;;10.60;5.40;;;;;;;-2.55;59.52;99092.01;103794;1271;60609;-63
2024/01/16 22:29:21;;;;;;;8.40;5.50;;;;;;;-2.60;59.41;99090.64;103801;1269;73701;-63
2024/01/16 22:32:33;;;;;;;8.80;5.30;;;;;;;-2.61;59.35;99097.33;103703;1264;69739;-64
2024/01/16 22:35:45;;;;;;;9.50;5.00;;;;;;;-2.62;59.30;99102.13;103549;1272;72655;-64
2024/01/16 22:38:57;;;;;;;9.50;4.60;;;;;;;-2.66;59.38;99105.04;103723;1266;61399;-67
2024/01/16 22:42:09;;;;;;;8.50;5.30;;;;;;;-2.66;59.36;99108.98;103656;1271;59787;-63
2024/01/16 22:45:22;;;;;;;5.60;4.10;;;;;;;-2.82;59.13;99115.80;103642;1271;72995;-62
2024/01/16 22:48:34;;;;;;;9.80;6.00;;;;;;;-2.99;59.16;99110.44;103557;1287;70257;-63
2024/01/16 22:51:48;;;;;;;6.90;4.20;;;;;;;-3.11;59.55;99114.00;103673;1269;73303;-63
2024/01/16 22:55:00;;;;;;;7.90;4.70;;;;;;;-3.23;59.94;99123.89;103835;1270;61448;-63
2024/01/16 22:58:12;;;;;;;8.10;4.70;;;;;;;-3.32;60.14;99126.77;103792;1279;61050;-64
2024/01/16 23:01:24;;;;;;;8.40;5.00;;;;;;;-3.38;60.49;99123.98;103777;1266;73235;-63
2024/01/16 23:04:33;;;;;;;8.50;4.80;;;;;;;-3.45;60.81;99124.98;104213;1272;69579;-63
2024/01/16 23:07:38;;;;;;;11.40;6.10;;;;;;;-3.48;61.04;99124.11;104078;1260;73881;-63
2024/01/16 23:10:09;;;;;;;10.20;5.30;;;;;;;-3.49;60.90;99126.68;104374;1258;61400;-64
2024/01/16 23:12:52;;;;;;;11.60;7.20;;;;;;;-3.55;61.22;99129.56;104142;1262;59646;-64
2024/01/16 23:16:08;;;;;;;12.50;7.40;;;;;;;-3.63;61.06;99128.83;104368;1259;71823;-64
2024/01/16 23:22:55;;;;;;;7.10;5.30;;;;;;;-3.84;61.98;99136.91;104541;1261;72444;-64
2024/01/16 23:26:09;;;;;;;9.40;5.10;;;;;;;-3.91;61.86;99136.86;104202;1260;61345;-62
2024/01/16 23:29:22;;;;;;;7.50;5.20;;;;;;;-3.94;61.96;99136.84;104454;1262;59618;-63
2024/01/16 23:32:34;;;;;;;14.00;6.90;;;;;;;-4.05;62.23;99142.91;104371;1262;72807;-62
2024/01/16 23:35:49;;;;;;;11.80;5.60;;;;;;;-4.15;63.10;99146.09;104359;1262;69166;-63
2024/01/16 23:39:10;;;;;;;11.00;6.50;;;;;;;-4.21;63.86;99143.82;104420;1262;72352;-63
2024/01/16 23:42:23;;;;;;;16.20;7.10;;;;;;;-4.20;63.89;99149.81;104161;1262;61487;-63
2024/01/16 23:45:48;;;;;;;9.90;5.70;;;;;;;-4.16;64.41;99158.41;104325;1259;59639;-63
2024/01/16 23:49:00;;;;;;;11.60;6.30;;;;;;;-4.09;64.44;99165.48;103952;1276;73152;-64
2024/01/16 23:52:13;;;;;;;9.50;6.60;;;;;;;-4.02;64.81;99169.14;104072;1259;69758;-63
2024/01/16 23:55:25;;;;;;;11.80;5.20;;;;;;;-3.97;64.33;99178.75;104500;1260;71934;-63
2024/01/16 23:58:40;;;;;;;10.50;5.30;;;;;;;-3.94;64.02;99179.81;104185;1257;61800;-63
